Time;durP1;ratioP1;P1;durP2;ratioP2;P2;SDS_P1;SDS_P2;PMS_P1;PMS_P2;Temp;Humidity;BMP_temperature;BMP_pressure;BME280_temperature;BME280_humidity;BME280_pressure;Samples;Min_cycle;Max_cycle;Signal;HPM_P1;HPM_P2
2021/09/13 00:00:19;;;;;;;4.6;3.7;;;;;;;16.29;89.13086;939.4606;;;;
2021/09/13 00:02:44;;;;;;;4.8;3.5;;;;;;;16.23;89.51367;939.4203;;;;
2021/09/13 00:05:10;;;;;;;7.3;3.2;;;;;;;16.14;90.03809;939.4475;;;;
2021/09/13 00:07:35;;;;;;;6.1;3.6;;;;;;;16.07;90.46289;939.4883;;;;
2021/09/13 00:10:00;;;;;;;4.3;3.6;;;;;;;16;91.07422;939.4485;;;;
2021/09/13 00:12:25;;;;;;;4.6;3.4;;;;;;;15.96;91.42285;939.4554;;;;
2021/09/13 00:14:50;;;;;;;4.1;3.5;;;;;;;15.96;91.28418;939.4988;;;;
2021/09/13 00:17:16;;;;;;;4.8;3.6;;;;;;;15.93;91.38281;939.5142;;;;
2021/09/13 00:19:41;;;;;;;4.5;3.7;;;;;;;16.03;90.53418;939.5008;;;;
2021/09/13 00:22:08;;;;;;;4.5;3.6;;;;;;;16.04;90.09863;939.5143;;;;
2021/09/13 00:24:33;;;;;;;4.3;3.5;;;;;;;16.01;89.96387;939.4998;;;;
2021/09/13 00:26:59;;;;;;;4.2;3.5;;;;;;;15.92;90.46582;939.5031;;;;
2021/09/13 00:29:24;;;;;;;3.8;3.4;;;;;;;15.85;91.01758;939.5094;;;;
2021/09/13 00:31:49;;;;;;;4.4;3.5;;;;;;;15.74;90.9834;939.5542;;;;
2021/09/13 00:34:14;;;;;;;4.5;3.4;;;;;;;15.74;91.03125;939.5742;;;;
2021/09/13 00:36:39;;;;;;;3.9;3.2;;;;;;;15.74;90.93848;939.5204;;;;
2021/09/13 00:39:04;;;;;;;5.1;3.8;;;;;;;15.74;90.91602;939.4706;;;;
2021/09/13 00:41:30;;;;;;;4.2;3.8;;;;;;;15.8;90.79004;939.4653;;;;
2021/09/13 00:43:55;;;;;;;4.6;3.5;;;;;;;15.87;90.39844;939.5011;;;;
2021/09/13 00:46:20;;;;;;;4.8;3.6;;;;;;;15.83;89.96387;939.5586;;;;
2021/09/13 00:48:45;;;;;;;3.9;3.5;;;;;;;15.77;89.60547;939.5129;;;;
2021/09/13 00:51:10;;;;;;;3.8;3.4;;;;;;;15.72;89.60645;939.5552;;;;
2021/09/13 00:53:36;;;;;;;5.2;3.9;;;;;;;15.59;89.11621;939.5567;;;;
2021/09/13 00:56:01;;;;;;;4.9;3.9;;;;;;;15.62;89.06445;939.5383;;;;
2021/09/13 00:58:26;;;;;;;4.9;3.5;;;;;;;15.48;88.36523;939.5821;;;;
2021/09/13 01:00:51;;;;;;;6.1;3.8;;;;;;;15.45;88.37305;939.5823;;;;
2021/09/13 01:03:16;;;;;;;3.9;3.5;;;;;;;15.34;89.04199;939.5002;;;;
2021/09/13 01:05:41;;;;;;;4.2;3.7;;;;;;;15.39;89.78027;939.5784;;;;
2021/09/13 01:08:06;;;;;;;4.7;3.5;;;;;;;15.3;90.10645;939.4924;;;;
2021/09/13 01:10:31;;;;;;;5;4.2;;;;;;;15.27;90.24121;939.5198;;;;
2021/09/13 01:12:57;;;;;;;4.7;3.8;;;;;;;15.24;90.21094;939.5353;;;;
2021/09/13 01:15:22;;;;;;;4.9;3.6;;;;;;;15.41;89.96875;939.5229;;;;
2021/09/13 01:17:47;;;;;;;3.8;3.3;;;;;;;15.33;90.44824;939.5002;;;;
2021/09/13 01:20:12;;;;;;;4.6;3.5;;;;;;;15.33;90.4502;939.4842;;;;
2021/09/13 01:22:37;;;;;;;4;3.5;;;;;;;15.3;90.16406;939.5125;;;;
2021/09/13 01:25:03;;;;;;;4.7;3.6;;;;;;;15.3;90.12988;939.4579;;;;
2021/09/13 01:27:28;;;;;;;6.1;3.7;;;;;;;15.35;90.48926;939.468;;;;
2021/09/13 01:29:53;;;;;;;4.4;3.8;;;;;;;15.36;90.23633;939.5144;;;;
2021/09/13 01:32:18;;;;;;;3.8;3.5;;;;;;;15.33;90.30957;939.4753;;;;
2021/09/13 01:34:43;;;;;;;4.2;3.5;;;;;;;15.32;90.2041;939.4578;;;;
2021/09/13 01:37:09;;;;;;;4.4;3.8;;;;;;;15.34;90.01172;939.4528;;;;
2021/09/13 01:39:34;;;;;;;5.1;4;;;;;;;15.29;89.93359;939.5037;;;;
2021/09/13 01:41:59;;;;;;;7.2;3.9;;;;;;;15.25;89.79688;939.4326;;;;
2021/09/13 01:44:24;;;;;;;4.2;3.7;;;;;;;15.19;90.15527;939.4984;;;;
2021/09/13 01:47:20;;;;;;;4.8;3.6;;;;;;;15.31;89.85645;939.4819;;;;
2021/09/13 01:49:45;;;;;;;4.3;3.9;;;;;;;15.1;89.77734;939.5006;;;;
2021/09/13 01:52:10;;;;;;;4.4;3.7;;;;;;;15.04;90.36523;939.4913;;;;
2021/09/13 01:54:35;;;;;;;4.7;3.9;;;;;;;15.03;90.80371;939.481;;;;
2021/09/13 01:57:00;;;;;;;6;3.7;;;;;;;15;90.66992;939.4969;;;;
2021/09/13 01:59:26;;;;;;;4.7;3.9;;;;;;;14.94;90.0918;939.4908;;;;
2021/09/13 02:02:02;;;;;;;4.7;4;;;;;;;14.96;90.17578;939.5099;;;;
2021/09/13 02:04:27;;;;;;;5.7;4.3;;;;;;;14.97;90.22363;939.4177;;;;
2021/09/13 02:06:53;;;;;;;5.9;4.2;;;;;;;14.89;89.97656;939.4117;;;;
2021/09/13 02:09:18;;;;;;;7.5;4.4;;;;;;;14.85;89.45996;939.4464;;;;
2021/09/13 02:11:44;;;;;;;5.3;4.3;;;;;;;14.79;89.5752;939.4384;;;;
2021/09/13 02:14:09;;;;;;;5.9;4.3;;;;;;;14.84;89.51758;939.432;;;;
2021/09/13 02:16:57;;;;;;;4.4;3.9;;;;;;;14.84;89.875;939.3807;;;;
2021/09/13 02:19:23;;;;;;;5.2;4.1;;;;;;;14.8;89.51953;939.3669;;;;
2021/09/13 02:21:48;;;;;;;4.7;4;;;;;;;14.94;89.83789;939.3914;;;;
2021/09/13 02:24:14;;;;;;;4.3;3.6;;;;;;;14.89;90.70313;939.4028;;;;
2021/09/13 02:26:39;;;;;;;5.7;3.7;;;;;;;14.86;91.13574;939.3934;;;;
2021/09/13 02:29:06;;;;;;;5.6;3.4;;;;;;;14.74;91.80078;939.409;;;;
2021/09/13 02:31:30;;;;;;;4.8;3.8;;;;;;;14.61;93.09961;939.4614;;;;
2021/09/13 02:33:56;;;;;;;4.4;3.6;;;;;;;14.52;93.2998;939.4833;;;;
2021/09/13 02:36:21;;;;;;;4.3;3.4;;;;;;;14.52;93.69141;939.4568;;;;
2021/09/13 02:38:46;;;;;;;4.9;4;;;;;;;14.53;93.82031;939.3943;;;;
2021/09/13 02:41:11;;;;;;;4.9;4.1;;;;;;;14.48;92.3584;939.4771;;;;
2021/09/13 02:43:36;;;;;;;4.9;3.9;;;;;;;14.45;92.16797;939.337;;;;
2021/09/13 02:46:01;;;;;;;4.4;3.7;;;;;;;14.44;93.14355;939.3859;;;;
2021/09/13 02:48:26;;;;;;;6.6;3.9;;;;;;;14.42;93.88867;939.4097;;;;
2021/09/13 02:50:51;;;;;;;5;3.9;;;;;;;14.48;93.55664;939.3602;;;;
2021/09/13 02:53:16;;;;;;;7;4.1;;;;;;;14.51;92.97461;939.3247;;;;
2021/09/13 02:58:07;;;;;;;5.2;3.5;;;;;;;14.49;92.72754;939.3641;;;;
2021/09/13 03:00:32;;;;;;;5.1;3.9;;;;;;;14.5;92.44238;939.3817;;;;
2021/09/13 03:02:57;;;;;;;4.2;3.6;;;;;;;14.51;91.63867;939.3367;;;;
2021/09/13 03:05:22;;;;;;;4.6;4.1;;;;;;;14.56;91.91504;939.3398;;;;
2021/09/13 03:07:47;;;;;;;4.9;3.9;;;;;;;14.43;92.64844;939.2986;;;;
2021/09/13 03:10:13;;;;;;;4.7;3.5;;;;;;;14.22;93.76758;939.3411;;;;
2021/09/13 03:12:38;;;;;;;5.2;3.9;;;;;;;14.19;94.05859;939.3258;;;;
2021/09/13 03:15:03;;;;;;;4.8;3.9;;;;;;;14.11;94.43262;939.2988;;;;
2021/09/13 03:17:28;;;;;;;4;3.6;;;;;;;14;94.92676;939.3234;;;;
2021/09/13 03:19:53;;;;;;;5.7;3.7;;;;;;;14.06;94.7334;939.3412;;;;
2021/09/13 03:22:18;;;;;;;4.7;3.7;;;;;;;14.16;93.99316;939.3635;;;;
2021/09/13 03:24:43;;;;;;;4.4;3.2;;;;;;;14.26;93.22266;939.3571;;;;
2021/09/13 03:27:08;;;;;;;4.1;3.7;;;;;;;14.13;93.79199;939.3315;;;;
2021/09/13 03:29:34;;;;;;;5.3;3.8;;;;;;;14.08;93.92969;939.3837;;;;
2021/09/13 03:31:59;;;;;;;4.6;3.6;;;;;;;14.04;93.89941;939.2925;;;;
2021/09/13 03:34:25;;;;;;;4.1;3.6;;;;;;;13.99;94.12012;939.3644;;;;
2021/09/13 03:36:51;;;;;;;3.7;3.3;;;;;;;13.95;94.29395;939.3196;;;;
2021/09/13 03:39:16;;;;;;;4.1;3.7;;;;;;;13.98;94.32324;939.3211;;;;
2021/09/13 03:41:41;;;;;;;5.5;4.3;;;;;;;13.94;94.27148;939.3372;;;;
2021/09/13 03:44:06;;;;;;;4.7;3.6;;;;;;;13.92;94.56445;939.3108;;;;
2021/09/13 03:46:31;;;;;;;4.4;3.9;;;;;;;13.89;94.67383;939.2941;;;;
2021/09/13 03:48:56;;;;;;;5.6;3.7;;;;;;;13.97;94.5166;939.2875;;;;
2021/09/13 03:51:21;;;;;;;5.5;4;;;;;;;14;93.9375;939.2994;;;;
2021/09/13 03:53:46;;;;;;;6.2;3.8;;;;;;;14.03;93.44824;939.2461;;;;
2021/09/13 03:56:12;;;;;;;4.1;3.4;;;;;;;13.9;93.77832;939.2972;;;;
2021/09/13 03:58:37;;;;;;;6.1;4;;;;;;;13.87;94.32227;939.2765;;;;
2021/09/13 04:02:31;;;;;;;5;3.8;;;;;;;13.71;95.20898;939.2396;;;;
2021/09/13 04:04:56;;;;;;;4.2;3.8;;;;;;;13.74;95.2959;939.2692;;;;
2021/09/13 04:07:24;;;;;;;4.3;3.6;;;;;;;13.76;94.65723;939.2244;;;;
2021/09/13 04:09:58;;;;;;;5.9;4.2;;;;;;;13.81;94.00195;939.2458;;;;
2021/09/13 04:12:11;;;;;;;4.3;3.9;;;;;;;13.82;93.64746;939.2277;;;;
2021/09/13 04:14:36;;;;;;;6.1;4.1;;;;;;;13.74;94.46777;939.2212;;;;
2021/09/13 04:17:01;;;;;;;5.1;4;;;;;;;13.71;94.70313;939.1932;;;;
2021/09/13 04:19:27;;;;;;;5.1;4.3;;;;;;;13.7;94.61914;939.1459;;;;
2021/09/13 04:21:53;;;;;;;7.4;4.3;;;;;;;13.62;95.12109;939.1172;;;;
2021/09/13 04:24:17;;;;;;;8.2;4.3;;;;;;;13.53;95.76953;939.1547;;;;
2021/09/13 04:26:43;;;;;;;4.7;3.8;;;;;;;13.59;95.92871;939.1873;;;;
2021/09/13 04:29:09;;;;;;;5.1;4;;;;;;;13.67;95.27051;939.17;;;;
2021/09/13 04:31:34;;;;;;;5.4;4.6;;;;;;;13.73;94.82031;939.1619;;;;
2021/09/13 04:34:00;;;;;;;5;4.1;;;;;;;13.71;94.92188;939.1644;;;;
2021/09/13 04:36:25;;;;;;;6.5;4.9;;;;;;;13.76;94.63477;939.1588;;;;
2021/09/13 04:38:51;;;;;;;7.4;4.7;;;;;;;13.8;94.13574;939.2155;;;;
2021/09/13 04:41:16;;;;;;;6.6;4.4;;;;;;;13.8;94.13379;939.1755;;;;
2021/09/13 04:43:41;;;;;;;4.6;4.1;;;;;;;13.79;93.95996;939.1843;;;;
2021/09/13 04:46:07;;;;;;;6.2;4.2;;;;;;;13.81;93.53809;939.1874;;;;
2021/09/13 04:48:32;;;;;;;5;4.3;;;;;;;13.84;93.1543;939.1948;;;;
2021/09/13 04:50:58;;;;;;;5.3;4.2;;;;;;;13.72;93.46289;939.1628;;;;
2021/09/13 04:53:23;;;;;;;7.3;4.9;;;;;;;13.75;93.22754;939.2028;;;;
2021/09/13 04:55:48;;;;;;;5.3;4.6;;;;;;;13.78;93.11816;939.1443;;;;
2021/09/13 04:58:13;;;;;;;5.6;4.2;;;;;;;13.64;94.00879;939.1325;;;;
2021/09/13 05:00:38;;;;;;;5.5;4.4;;;;;;;13.7;94.13574;939.1636;;;;
2021/09/13 05:03:04;;;;;;;6;4.4;;;;;;;13.8;93.24805;939.1306;;;;
2021/09/13 05:05:29;;;;;;;5.2;4;;;;;;;13.8;93.24805;939.1667;;;;
2021/09/13 05:07:55;;;;;;;6.5;4.9;;;;;;;13.86;93.06836;939.2213;;;;
2021/09/13 05:10:20;;;;;;;4.6;4.2;;;;;;;13.95;92.31445;939.2203;;;;
2021/09/13 05:12:45;;;;;;;5;4.3;;;;;;;13.89;92.6123;939.1917;;;;
2021/09/13 05:15:10;;;;;;;7.1;4.6;;;;;;;13.95;92.56738;939.226;;;;
2021/09/13 05:17:36;;;;;;;5.6;4.1;;;;;;;14.04;91.99023;939.2764;;;;
2021/09/13 05:20:01;;;;;;;6.3;4.3;;;;;;;14.16;91.73926;939.2537;;;;
2021/09/13 05:22:26;;;;;;;6.3;3.8;;;;;;;14.19;91.3877;939.2472;;;;
2021/09/13 05:24:51;;;;;;;5.5;4.1;;;;;;;14.3;90.70801;939.3281;;;;
2021/09/13 05:27:16;;;;;;;5.1;4;;;;;;;14.31;90.05273;939.2936;;;;
2021/09/13 05:29:42;;;;;;;4.2;3.7;;;;;;;14.33;90.20703;939.3016;;;;
2021/09/13 05:32:07;;;;;;;4.5;3.6;;;;;;;14.34;90.28906;939.2847;;;;
2021/09/13 05:34:32;;;;;;;6.5;3.6;;;;;;;14.45;89.76074;939.3177;;;;
2021/09/13 05:36:58;;;;;;;4;3.6;;;;;;;14.54;89.20313;939.2773;;;;
2021/09/13 05:39:23;;;;;;;5.6;4;;;;;;;14.6;89.12207;939.3147;;;;
2021/09/13 05:41:49;;;;;;;7.2;4.1;;;;;;;14.51;89.80566;939.3318;;;;
2021/09/13 05:44:14;;;;;;;5.6;3.9;;;;;;;14.63;89.6709;939.3197;;;;
2021/09/13 05:46:39;;;;;;;6.9;5.1;;;;;;;14.68;89.84375;939.3122;;;;
2021/09/13 05:49:09;;;;;;;5.3;3.8;;;;;;;14.71;89.49121;939.3304;;;;
2021/09/13 05:51:30;;;;;;;4.4;3.6;;;;;;;14.91;88.79395;939.3731;;;;
2021/09/13 05:53:55;;;;;;;5.2;3.5;;;;;;;15.67;86.76465;939.383;;;;
2021/09/13 05:56:20;;;;;;;5.9;3.9;;;;;;;16.26;82.8457;939.3284;;;;
2021/09/13 05:58:45;;;;;;;3.6;3.2;;;;;;;16.97;78.87598;939.3934;;;;
2021/09/13 06:01:10;;;;;;;3.6;3.1;;;;;;;17.46;76.5166;939.4074;;;;
2021/09/13 06:03:35;;;;;;;4;3.1;;;;;;;17.89;75.05957;939.4127;;;;
2021/09/13 06:06:00;;;;;;;4;2.9;;;;;;;18.35;73.11523;939.4551;;;;
2021/09/13 06:08:26;;;;;;;4.3;3.9;;;;;;;18.63;72.25293;939.4684;;;;
2021/09/13 06:10:51;;;;;;;4.6;3.4;;;;;;;19.41;69.94629;939.4302;;;;
2021/09/13 06:13:17;;;;;;;3.4;3.1;;;;;;;19.97;68.12207;939.423;;;;
2021/09/13 06:15:43;;;;;;;4.3;3.2;;;;;;;19.95;67.20801;939.4163;;;;
2021/09/13 06:18:10;;;;;;;5.8;5.3;;;;;;;20.05;67.41113;939.4147;;;;
2021/09/13 06:20:34;;;;;;;4.4;3.6;;;;;;;20.69;64.43555;939.4523;;;;
2021/09/13 06:22:59;;;;;;;3.1;2.7;;;;;;;21.31;63.44824;939.4025;;;;
2021/09/13 06:25:24;;;;;;;3.3;2.6;;;;;;;22.54;59.56543;939.3903;;;;
2021/09/13 06:27:50;;;;;;;3.2;2.9;;;;;;;20.17;66.96094;939.3762;;;;
2021/09/13 06:30:15;;;;;;;3.2;2.6;;;;;;;21.25;64.21289;939.4009;;;;
2021/09/13 06:32:40;;;;;;;2.7;2.5;;;;;;;21.51;62.49414;939.3382;;;;
2021/09/13 06:35:05;;;;;;;3.6;2.8;;;;;;;21.79;60.82324;939.3549;;;;
2021/09/13 06:37:30;;;;;;;3.1;2.8;;;;;;;22.04;60.45996;939.3563;;;;
2021/09/13 06:39:58;;;;;;;3.3;2.8;;;;;;;22.23;59.8623;939.2775;;;;
2021/09/13 06:42:20;;;;;;;3.7;2.7;;;;;;;20.9;64.19629;939.3036;;;;
2021/09/13 06:45:11;;;;;;;5.2;3.1;;;;;;;20.91;64.99121;939.2968;;;;
2021/09/13 06:47:44;;;;;;;4.5;3;;;;;;;20.14;67.66797;939.322;;;;
2021/09/13 06:50:12;;;;;;;4;3.2;;;;;;;19.93;68.76855;939.378;;;;
2021/09/13 06:52:39;;;;;;;2.9;2.7;;;;;;;19.64;70.68164;939.3789;;;;
2021/09/13 06:55:02;;;;;;;3.9;3;;;;;;;19.64;69.99512;939.395;;;;
2021/09/13 06:57:29;;;;;;;4.4;3.1;;;;;;;19.06;73.22168;939.4423;;;;
2021/09/13 06:59:53;;;;;;;3.5;3.2;;;;;;;18.72;74.89844;939.4584;;;;
2021/09/13 07:02:18;;;;;;;5.3;3.1;;;;;;;18.31;76.97754;939.4381;;;;
2021/09/13 07:04:43;;;;;;;3.6;3.2;;;;;;;18.42;76.89258;939.4829;;;;
2021/09/13 07:07:09;;;;;;;3.9;3.5;;;;;;;18.46;76.22461;939.476;;;;
2021/09/13 07:09:43;;;;;;;3.5;3.2;;;;;;;18.79;76.54004;939.4846;;;;
2021/09/13 07:11:59;;;;;;;3.7;2.8;;;;;;;19.64;73.86621;939.467;;;;
2021/09/13 07:14:24;;;;;;;3.3;2.9;;;;;;;19.96;70.6875;939.4992;;;;
2021/09/13 07:16:50;;;;;;;3.1;2.8;;;;;;;20.03;69.8584;939.4822;;;;
2021/09/13 07:19:16;;;;;;;3.2;2.9;;;;;;;19.82;70.62891;939.4836;;;;
2021/09/13 07:21:42;;;;;;;4.8;2.9;;;;;;;19.25;72.9375;939.5598;;;;
2021/09/13 07:24:07;;;;;;;3.1;2.8;;;;;;;19.16;73.14355;939.5331;;;;
2021/09/13 07:26:33;;;;;;;5;3;;;;;;;19.02;73.66699;939.4988;;;;
2021/09/13 07:28:58;;;;;;;4.1;3;;;;;;;19.4;73.58008;939.6031;;;;
2021/09/13 07:31:23;;;;;;;3.1;2.8;;;;;;;20.24;71.4209;939.503;;;;
2021/09/13 07:33:48;;;;;;;4;2.9;;;;;;;21;69.37988;939.5597;;;;
2021/09/13 07:36:13;;;;;;;4.5;2.9;;;;;;;21.21;66.40723;939.5594;;;;
2021/09/13 07:38:39;;;;;;;4.7;2.7;;;;;;;21.79;65.42578;939.5131;;;;
2021/09/13 07:41:04;;;;;;;3.6;2.6;;;;;;;22.15;64.51758;939.5452;;;;
2021/09/13 07:43:29;;;;;;;3.1;2.8;;;;;;;22.24;62.97266;939.5383;;;;
2021/09/13 07:45:54;;;;;;;3.5;2.9;;;;;;;21.79;62.6748;939.5664;;;;
2021/09/13 07:48:22;;;;;;;4.1;3.1;;;;;;;22.56;62.81836;939.5584;;;;
2021/09/13 07:50:44;;;;;;;3.3;2.8;;;;;;;23.14;61.87695;939.555;;;;
2021/09/13 07:54:07;;;;;;;3.8;3;;;;;;;23.87;58.89551;939.535;;;;
2021/09/13 07:56:31;;;;;;;3;2.7;;;;;;;22.87;59.21973;939.5461;;;;
2021/09/13 07:58:56;;;;;;;3.1;2.8;;;;;;;24.24;57.00098;939.5572;;;;
2021/09/13 08:01:21;;;;;;;3.4;2.8;;;;;;;25.21;54.59766;939.4748;;;;
2021/09/13 08:03:46;;;;;;;2.9;2.7;;;;;;;26.52;50.96973;939.4607;;;;
2021/09/13 08:06:11;;;;;;;2.8;2.5;;;;;;;27.79;46.55566;939.4702;;;;
2021/09/13 08:08:36;;;;;;;3.4;2.8;;;;;;;29.33;44.16504;939.5061;;;;
2021/09/13 08:11:02;;;;;;;3.2;2.8;;;;;;;28.55;43.64844;939.5159;;;;
2021/09/13 08:13:27;;;;;;;3.6;2.9;;;;;;;27.48;46.90234;939.4309;;;;
2021/09/13 08:15:52;;;;;;;2.7;2.5;;;;;;;28.97;43.98535;939.4055;;;;
2021/09/13 08:18:17;;;;;;;3;2.5;;;;;;;29.03;41.47949;939.4034;;;;
2021/09/13 08:20:43;;;;;;;2.6;2.4;;;;;;;26.71;46.86914;939.4139;;;;
2021/09/13 08:23:08;;;;;;;2.4;2.2;;;;;;;27.5;45.61133;939.4704;;;;
2021/09/13 08:25:33;;;;;;;2.5;2.1;;;;;;;27.85;46.05078;939.4238;;;;
2021/09/13 08:27:58;;;;;;;2.8;2.5;;;;;;;29.44;42.92383;939.4328;;;;
2021/09/13 08:30:23;;;;;;;3.1;2.6;;;;;;;30.87;40.02344;939.4467;;;;
2021/09/13 08:32:48;;;;;;;3.1;2.6;;;;;;;31.1;39.0625;939.4336;;;;
2021/09/13 08:35:13;;;;;;;2.5;2.3;;;;;;;31.61;37.50195;939.4216;;;;
2021/09/13 08:37:38;;;;;;;2.6;2.4;;;;;;;28.93;42.26855;939.3904;;;;
2021/09/13 08:40:04;;;;;;;2.5;2.3;;;;;;;31.24;39.11133;939.4233;;;;
2021/09/13 08:42:29;;;;;;;2.4;2.2;;;;;;;32.28;36.6709;939.3963;;;;
2021/09/13 08:44:54;;;;;;;2.8;2.5;;;;;;;33;35.32324;939.372;;;;
2021/09/13 08:47:24;;;;;;;2.6;2.4;;;;;;;34.17;34.64355;939.3808;;;;
2021/09/13 08:49:46;;;;;;;3.1;2.5;;;;;;;33.89;34.08105;939.4058;;;;
2021/09/13 08:52:09;;;;;;;2.6;2.4;;;;;;;33.81;34.30371;939.3997;;;;
2021/09/13 08:54:36;;;;;;;2.5;2.3;;;;;;;32.27;36.83691;939.4595;;;;
2021/09/13 08:57:01;;;;;;;4.2;2.9;;;;;;;31.77;36.65332;939.4927;;;;
2021/09/13 08:59:26;;;;;;;3.7;2.3;;;;;;;33.67;33.93164;939.4678;;;;
2021/09/13 09:01:50;;;;;;;2.5;2.3;;;;;;;34.2;32.79102;939.455;;;;
2021/09/13 09:04:15;;;;;;;2.7;2.5;;;;;;;33.64;34.78418;939.4455;;;;
2021/09/13 09:06:40;;;;;;;2.9;2.5;;;;;;;32.63;37.27441;939.4836;;;;
2021/09/13 09:09:05;;;;;;;3.1;2.6;;;;;;;30.66;40.3877;939.4397;;;;
2021/09/13 09:11:30;;;;;;;2.5;2.3;;;;;;;31.25;39.25488;939.4658;;;;
2021/09/13 09:13:56;;;;;;;4;2.5;;;;;;;30.97;42.42383;939.4447;;;;
2021/09/13 09:16:21;;;;;;;3.6;2.6;;;;;;;29.51;43.15723;939.4345;;;;
2021/09/13 09:18:46;;;;;;;3.3;2.6;;;;;;;29.72;42.7832;939.4106;;;;
2021/09/13 09:21:11;;;;;;;3.8;2.6;;;;;;;29.06;44.78125;939.4465;;;;
2021/09/13 09:23:36;;;;;;;3.2;2.5;;;;;;;28.01;48.21582;939.4733;;;;
2021/09/13 09:26:01;;;;;;;3;2.7;;;;;;;28.2;47.91699;939.4469;;;;
2021/09/13 09:28:26;;;;;;;3.3;2.6;;;;;;;29.24;44.27539;939.4753;;;;
2021/09/13 09:30:52;;;;;;;3.3;2.5;;;;;;;26.74;51.29102;939.4492;;;;
2021/09/13 09:33:17;;;;;;;3.1;2.6;;;;;;;26.46;52.92773;939.4191;;;;
2021/09/13 09:35:43;;;;;;;3.3;2.8;;;;;;;26.25;51.84961;939.4697;;;;
2021/09/13 09:38:08;;;;;;;3.8;2.5;;;;;;;24.84;53.96387;939.4146;;;;
2021/09/13 09:40:33;;;;;;;2.7;2.5;;;;;;;24.54;58.71289;939.4309;;;;
2021/09/13 09:42:59;;;;;;;3.3;2.7;;;;;;;24.13;59.56641;939.4606;;;;
2021/09/13 09:45:24;;;;;;;3.1;2.8;;;;;;;24.26;59.80664;939.3771;;;;
2021/09/13 09:47:49;;;;;;;3.4;3.1;;;;;;;24.04;58.2002;939.4177;;;;
2021/09/13 09:50:15;;;;;;;7.3;3.1;;;;;;;24.16;60.34668;939.4447;;;;
2021/09/13 09:52:39;;;;;;;3.3;2.8;;;;;;;24.32;59.25977;939.3395;;;;
2021/09/13 09:55:04;;;;;;;3.2;2.9;;;;;;;24.17;61.62012;939.3759;;;;
2021/09/13 09:57:30;;;;;;;3.5;2.9;;;;;;;24.23;65.00977;939.363;;;;
2021/09/13 09:59:55;;;;;;;3.2;2.9;;;;;;;24.31;63.36035;939.3413;;;;
2021/09/13 10:02:21;;;;;;;3.3;3;;;;;;;24.24;61.13574;939.2522;;;;
2021/09/13 10:04:46;;;;;;;2.9;2.7;;;;;;;24.37;64.4873;939.2444;;;;
2021/09/13 10:07:11;;;;;;;3.2;2.9;;;;;;;24.7;61.52734;939.2381;;;;
2021/09/13 10:09:36;;;;;;;3.5;3.2;;;;;;;24.53;59.60742;939.1808;;;;
2021/09/13 10:12:01;;;;;;;3;2.7;;;;;;;24.92;59.93164;939.2578;;;;
2021/09/13 10:14:27;;;;;;;3.7;2.9;;;;;;;25.28;58.07813;939.1788;;;;
2021/09/13 10:16:52;;;;;;;3.2;2.9;;;;;;;25.3;56.84082;939.1725;;;;
2021/09/13 10:19:18;;;;;;;3.3;2.5;;;;;;;26.02;54.75586;939.1417;;;;
2021/09/13 10:21:43;;;;;;;2.8;2.6;;;;;;;26.96;55.52246;939.1808;;;;
2021/09/13 10:24:10;;;;;;;3;2.8;;;;;;;27.33;52.35449;939.1396;;;;
2021/09/13 10:26:35;;;;;;;3.3;2.9;;;;;;;27.24;53.00781;939.1275;;;;
2021/09/13 10:29:00;;;;;;;3.3;3;;;;;;;27.03;54.83203;939.0606;;;;
2021/09/13 10:31:25;;;;;;;3;2.7;;;;;;;27.17;51.62402;939.0869;;;;
2021/09/13 10:33:50;;;;;;;3;2.7;;;;;;;27.66;51.84668;939.0572;;;;
2021/09/13 10:36:15;;;;;;;3.3;2.9;;;;;;;28.75;48.79492;939.0334;;;;
2021/09/13 10:38:40;;;;;;;2.9;2.6;;;;;;;28.81;49.50391;939.0854;;;;
2021/09/13 10:41:05;;;;;;;2.8;2.5;;;;;;;28.51;49.12695;939.0021;;;;
2021/09/13 10:43:31;;;;;;;3.2;2.7;;;;;;;28.56;50.30859;938.9741;;;;
2021/09/13 10:45:56;;;;;;;3.1;2.5;;;;;;;28.95;49.30469;938.8842;;;;
2021/09/13 10:48:21;;;;;;;2.7;2.5;;;;;;;28.75;48.31934;938.8834;;;;
2021/09/13 10:50:47;;;;;;;3;2.7;;;;;;;28.61;48.82813;938.8921;;;;
2021/09/13 10:53:11;;;;;;;2.9;2.6;;;;;;;29.28;48.81738;938.9005;;;;
2021/09/13 10:55:36;;;;;;;3.3;2.5;;;;;;;30.35;44.74219;938.8884;;;;
2021/09/13 10:58:02;;;;;;;2.6;2.4;;;;;;;30.85;43.53613;938.8549;;;;
2021/09/13 11:00:26;;;;;;;3.3;2.4;;;;;;;30.81;43.18652;938.8258;;;;
2021/09/13 11:02:52;;;;;;;3;2.4;;;;;;;31.73;41.0332;938.8002;;;;
2021/09/13 11:05:17;;;;;;;2.5;2.3;;;;;;;31.41;42.31055;938.7653;;;;
2021/09/13 14:16:08;;;;;;;3.9;2.5;;;;;;;29;45.15625;937.8643;;;;
2021/09/13 14:20:15;;;;;;;5.3;2.9;;;;;;;28.9;45.80078;937.8589;;;;
2021/09/13 14:22:40;;;;;;;3.6;3.3;;;;;;;28.74;45.21289;937.757;;;;
2021/09/13 14:25:05;;;;;;;4.4;2.8;;;;;;;28.75;45.72559;937.8301;;;;
2021/09/13 14:27:30;;;;;;;3.6;2.9;;;;;;;28.41;45.59668;937.8127;;;;
2021/09/13 14:29:55;;;;;;;3.5;2.4;;;;;;;28.23;47.3252;937.8876;;;;
2021/09/13 14:32:21;;;;;;;4.2;3.2;;;;;;;28.14;47.24414;937.8519;;;;
2021/09/13 14:34:47;;;;;;;3.3;2.6;;;;;;;27.57;48.03906;937.8535;;;;
2021/09/13 14:37:12;;;;;;;3.6;3;;;;;;;27.35;49.02441;937.9189;;;;
2021/09/13 14:39:40;;;;;;;5.1;2.9;;;;;;;27.14;49.47461;937.8478;;;;
2021/09/13 14:42:05;;;;;;;2.9;2.7;;;;;;;26.95;50.26074;937.8364;;;;
2021/09/13 14:44:29;;;;;;;3.3;3;;;;;;;26.97;50.15527;937.8692;;;;
2021/09/13 14:46:55;;;;;;;2.9;2.7;;;;;;;26.88;50.16895;937.9125;;;;
2021/09/13 14:49:20;;;;;;;3.9;2.6;;;;;;;26.95;49.91602;937.8539;;;;
2021/09/13 14:51:45;;;;;;;3.8;3;;;;;;;26.58;50.89355;937.8561;;;;
2021/09/13 14:54:10;;;;;;;3.4;3;;;;;;;26.42;51.21973;937.8463;;;;
2021/09/13 14:56:35;;;;;;;3.2;2.9;;;;;;;26.11;52.4248;937.945;;;;
2021/09/13 14:59:01;;;;;;;3.2;2.9;;;;;;;25.84;52.9375;937.9081;;;;
2021/09/13 15:01:26;;;;;;;4.1;2.6;;;;;;;25.64;53.54004;937.8945;;;;
2021/09/13 15:03:50;;;;;;;4.1;3.1;;;;;;;25.62;53.63184;937.8666;;;;
2021/09/13 15:06:16;;;;;;;3.7;2.7;;;;;;;25.58;54.04199;937.8596;;;;
2021/09/13 15:08:41;;;;;;;4.9;3.4;;;;;;;25.52;54.42383;937.8381;;;;
2021/09/13 15:11:08;;;;;;;7.2;3;;;;;;;25.7;54.23242;937.8298;;;;
2021/09/13 15:13:34;;;;;;;5;3;;;;;;;25.81;54.39941;937.8363;;;;
2021/09/13 15:15:59;;;;;;;3.9;3.1;;;;;;;26.03;53.82324;937.8562;;;;
2021/09/13 15:18:26;;;;;;;4.4;3.1;;;;;;;26.18;53.28418;937.8786;;;;
2021/09/13 15:20:51;;;;;;;4.1;3.2;;;;;;;26.22;52.2373;937.8567;;;;
2021/09/13 15:23:16;;;;;;;4.1;3.1;;;;;;;26.35;51.70801;937.8742;;;;
2021/09/13 15:25:43;;;;;;;3.9;2.8;;;;;;;26.42;51.45605;937.8812;;;;
2021/09/13 16:19:01;;;;;;;5.8;3.1;;;;;;;26.12;52.39063;937.97;;;;
2021/09/13 16:21:26;;;;;;;3.7;2.7;;;;;;;26.01;53.02734;937.9345;;;;
2021/09/13 16:26:20;;;;;;;3.1;2.8;;;;;;;25.63;54.07031;937.9437;;;;
2021/09/13 16:28:43;;;;;;;4.3;2.8;;;;;;;25.49;54.37207;937.9799;;;;
2021/09/13 16:31:11;;;;;;;3.3;2.6;;;;;;;25.27;54.86523;938.0292;;;;
2021/09/13 16:33:34;;;;;;;3.1;2.7;;;;;;;25.19;55.17383;938.0393;;;;
2021/09/13 16:35:59;;;;;;;3.3;3;;;;;;;25.08;55.78613;938.0159;;;;
2021/09/13 16:38:24;;;;;;;3;2.7;;;;;;;24.98;56.06836;938.0036;;;;
2021/09/13 16:40:49;;;;;;;3;2.7;;;;;;;24.84;56.7832;938.05;;;;
2021/09/13 16:43:14;;;;;;;3.6;2.9;;;;;;;24.66;56.98438;938.0947;;;;
2021/09/13 16:45:41;;;;;;;3.1;2.8;;;;;;;24.55;57.65332;938.1175;;;;
2021/09/13 16:48:05;;;;;;;3.2;2.9;;;;;;;24.33;58.02539;938.0984;;;;
2021/09/13 16:50:31;;;;;;;3.4;3;;;;;;;24.21;58.04395;938.13;;;;
2021/09/13 16:52:56;;;;;;;3.1;2.8;;;;;;;24.12;59.00977;938.0817;;;;
2021/09/13 16:55:21;;;;;;;3.4;2.7;;;;;;;24.04;58.63574;938.1543;;;;
2021/09/13 16:57:47;;;;;;;3.1;2.8;;;;;;;23.87;59.08398;938.163;;;;
2021/09/13 17:00:12;;;;;;;2.8;2.6;;;;;;;23.83;60.87793;938.2321;;;;
2021/09/13 17:02:37;;;;;;;4.5;3.1;;;;;;;23.7;61.81445;938.2143;;;;
2021/09/13 17:05:02;;;;;;;3.2;2.9;;;;;;;23.61;61.7666;938.2048;;;;
2021/09/13 17:07:27;;;;;;;3.2;2.9;;;;;;;23.5;61.50391;938.209;;;;
2021/09/13 17:09:53;;;;;;;3.2;2.9;;;;;;;23.34;62.27051;938.2654;;;;
2021/09/13 17:12:18;;;;;;;3.7;3.1;;;;;;;23.27;64.375;938.2651;;;;
2021/09/13 17:14:43;;;;;;;6.5;3.4;;;;;;;22.98;66.07129;938.2606;;;;
2021/09/13 17:17:10;;;;;;;4.7;3.2;;;;;;;22.69;67.81348;938.3075;;;;
2021/09/13 17:19:36;;;;;;;5.7;3.5;;;;;;;22.68;67.51953;938.2678;;;;
2021/09/13 17:22:00;;;;;;;4.5;3.6;;;;;;;22.3;69.40723;938.2908;;;;
2021/09/13 17:24:26;;;;;;;5.4;4.2;;;;;;;22.17;69.39941;938.3301;;;;
2021/09/13 17:26:51;;;;;;;4;3.6;;;;;;;22.01;70.18262;938.3334;;;;
2021/09/13 17:29:17;;;;;;;4;3.6;;;;;;;21.87;69.53906;938.3764;;;;
2021/09/13 17:31:42;;;;;;;4.7;3.7;;;;;;;21.63;71.09473;938.304;;;;
2021/09/13 17:34:07;;;;;;;4.9;3.8;;;;;;;21.7;70.50879;938.3176;;;;
2021/09/13 17:36:32;;;;;;;7.8;3.7;;;;;;;21.63;70.86035;938.368;;;;
2021/09/13 17:38:57;;;;;;;4.8;3.3;;;;;;;21.59;71.08789;938.3722;;;;
2021/09/13 17:41:22;;;;;;;4.1;3.7;;;;;;;21.66;71.25098;938.4174;;;;
2021/09/13 17:43:49;;;;;;;4.3;3.5;;;;;;;21.73;71.42676;938.4342;;;;
2021/09/13 17:46:14;;;;;;;4.4;3.5;;;;;;;21.78;70.39355;938.5193;;;;
2021/09/13 17:48:39;;;;;;;3.8;3.4;;;;;;;21.8;71.15723;938.4984;;;;
2021/09/13 17:51:05;;;;;;;5.9;3.8;;;;;;;21.85;71.03613;938.5286;;;;
2021/09/13 17:53:30;;;;;;;3.4;3.1;;;;;;;21.8;70.79395;938.5381;;;;
2021/09/13 17:55:55;;;;;;;3.9;3.5;;;;;;;21.8;70.52344;938.5237;;;;
2021/09/13 17:58:20;;;;;;;3.9;3.5;;;;;;;21.79;70.10156;938.5076;;;;
2021/09/13 18:00:45;;;;;;;3.9;3.3;;;;;;;21.75;70.65723;938.535;;;;
2021/09/13 18:03:10;;;;;;;3.7;3.3;;;;;;;21.71;70.08887;938.5153;;;;
2021/09/13 18:05:35;;;;;;;4.4;3.3;;;;;;;21.63;70.44922;938.5723;;;;
2021/09/13 18:08:01;;;;;;;4;3.3;;;;;;;21.59;70.4082;938.6015;;;;
2021/09/13 18:10:26;;;;;;;3.5;3.2;;;;;;;21.55;70.89453;938.5622;;;;
2021/09/13 18:12:51;;;;;;;3.8;3.3;;;;;;;21.47;71.57227;938.6233;;;;
2021/09/13 18:15:19;;;;;;;3.7;3.3;;;;;;;21.33;71.83105;938.6978;;;;
2021/09/13 18:17:44;;;;;;;5.1;3.6;;;;;;;21.25;72.22754;938.6906;;;;
2021/09/13 18:20:11;;;;;;;4.1;3.5;;;;;;;21.17;72.45996;938.6844;;;;
2021/09/13 18:22:36;;;;;;;4.1;3.2;;;;;;;21.07;72.59766;938.7173;;;;